sensor_id;sensor_type;location;lat;lon;timestamp;P1;durP1;ratioP1;P2;durP2;ratioP2
49962;SDS011;36180;57.678;11.910;2024-01-27T00:00:01;22.33;;;4.22;;
49962;SDS011;36180;57.678;11.910;2024-01-27T00:02:34;22.45;;;3.78;;
49962;SDS011;36180;57.678;11.910;2024-01-27T00:05:01;29.13;;;3.33;;
49962;SDS011;36180;57.678;11.910;2024-01-27T00:07:28;25.65;;;3.03;;
49962;SDS011;36180;57.678;11.910;2024-01-27T00:09:56;19.85;;;3.45;;
49962;SDS011;36180;57.678;11.910;2024-01-27T00:12:24;28.30;;;3.50;;
49962;SDS011;36180;57.678;11.910;2024-01-27T00:14:51;22.83;;;3.53;;
49962;SDS011;36180;57.678;11.910;2024-01-27T00:17:18;25.83;;;3.08;;
49962;SDS011;36180;57.678;11.910;2024-01-27T00:19:49;26.92;;;4.60;;
49962;SDS011;36180;57.678;11.910;2024-01-27T00:22:16;28.73;;;3.47;;
49962;SDS011;36180;57.678;11.910;2024-01-27T00:24:43;23.20;;;3.60;;
49962;SDS011;36180;57.678;11.910;2024-01-27T00:27:11;19.65;;;3.28;;
49962;SDS011;36180;57.678;11.910;2024-01-27T00:29:39;33.53;;;3.70;;
49962;SDS011;36180;57.678;11.910;2024-01-27T00:32:06;24.67;;;3.75;;
49962;SDS011;36180;57.678;11.910;2024-01-27T00:34:33;15.98;;;2.50;;
49962;SDS011;36180;57.678;11.910;2024-01-27T00:37:00;20.20;;;3.30;;
49962;SDS011;36180;57.678;11.910;2024-01-27T00:39:27;29.65;;;3.58;;
49962;SDS011;36180;57.678;11.910;2024-01-27T00:41:54;24.05;;;3.60;;
49962;SDS011;36180;57.678;11.910;2024-01-27T00:44:24;20.27;;;2.75;;
49962;SDS011;36180;57.678;11.910;2024-01-27T00:46:51;27.75;;;3.13;;
49962;SDS011;36180;57.678;11.910;2024-01-27T00:49:18;21.55;;;3.65;;
49962;SDS011;36180;57.678;11.910;2024-01-27T00:51:45;26.50;;;3.30;;
49962;SDS011;36180;57.678;11.910;2024-01-27T00:54:12;20.13;;;2.85;;
49962;SDS011;36180;57.678;11.910;2024-01-27T00:56:39;17.48;;;3.10;;
49962;SDS011;36180;57.678;11.910;2024-01-27T00:59:06;21.38;;;3.38;;
49962;SDS011;36180;57.678;11.910;2024-01-27T01:01:35;17.83;;;2.60;;
49962;SDS011;36180;57.678;11.910;2024-01-27T01:04:02;24.35;;;3.42;;
49962;SDS011;36180;57.678;11.910;2024-01-27T01:06:29;20.25;;;3.45;;
49962;SDS011;36180;57.678;11.910;2024-01-27T01:08:56;25.85;;;2.88;;
49962;SDS011;36180;57.678;11.910;2024-01-27T01:11:23;26.23;;;4.28;;
49962;SDS011;36180;57.678;11.910;2024-01-27T01:13:50;19.50;;;3.78;;
49962;SDS011;36180;57.678;11.910;2024-01-27T01:16:17;23.58;;;4.05;;
49962;SDS011;36180;57.678;11.910;2024-01-27T01:18:45;26.67;;;4.00;;
49962;SDS011;36180;57.678;11.910;2024-01-27T01:21:12;22.52;;;3.63;;
49962;SDS011;36180;57.678;11.910;2024-01-27T01:23:39;25.55;;;3.30;;
49962;SDS011;36180;57.678;11.910;2024-01-27T01:26:06;22.35;;;3.60;;
49962;SDS011;36180;57.678;11.910;2024-01-27T01:28:33;19.75;;;3.55;;
49962;SDS011;36180;57.678;11.910;2024-01-27T01:31:00;20.65;;;3.00;;
49962;SDS011;36180;57.678;11.910;2024-01-27T01:33:27;21.05;;;3.58;;
49962;SDS011;36180;57.678;11.910;2024-01-27T01:35:55;19.67;;;3.10;;
49962;SDS011;36180;57.678;11.910;2024-01-27T01:38:22;21.45;;;3.30;;
49962;SDS011;36180;57.678;11.910;2024-01-27T01:40:49;28.75;;;3.83;;
49962;SDS011;36180;57.678;11.910;2024-01-27T01:43:16;28.55;;;3.13;;
49962;SDS011;36180;57.678;11.910;2024-01-27T01:45:43;24.00;;;3.20;;
49962;SDS011;36180;57.678;11.910;2024-01-27T01:48:10;26.77;;;3.88;;
49962;SDS011;36180;57.678;11.910;2024-01-27T01:50:37;28.98;;;3.75;;
49962;SDS011;36180;57.678;11.910;2024-01-27T01:53:06;23.67;;;3.78;;
49962;SDS011;36180;57.678;11.910;2024-01-27T01:55:33;25.83;;;3.65;;
49962;SDS011;36180;57.678;11.910;2024-01-27T01:58:00;24.52;;;3.53;;
49962;SDS011;36180;57.678;11.910;2024-01-27T02:00:27;24.08;;;3.85;;
49962;SDS011;36180;57.678;11.910;2024-01-27T02:02:54;21.45;;;3.47;;
49962;SDS011;36180;57.678;11.910;2024-01-27T02:05:21;23.85;;;3.35;;
49962;SDS011;36180;57.678;11.910;2024-01-27T02:07:48;21.10;;;3.35;;
49962;SDS011;36180;57.678;11.910;2024-01-27T02:10:17;22.65;;;2.83;;
49962;SDS011;36180;57.678;11.910;2024-01-27T02:12:44;23.08;;;3.20;;
49962;SDS011;36180;57.678;11.910;2024-01-27T02:15:12;21.88;;;3.60;;
49962;SDS011;36180;57.678;11.910;2024-01-27T02:17:40;23.55;;;3.33;;
49962;SDS011;36180;57.678;11.910;2024-01-27T02:20:07;23.88;;;3.35;;
49962;SDS011;36180;57.678;11.910;2024-01-27T02:22:35;26.90;;;3.83;;
49962;SDS011;36180;57.678;11.910;2024-01-27T02:25:04;23.58;;;3.42;;
49962;SDS011;36180;57.678;11.910;2024-01-27T02:27:31;23.02;;;3.50;;
49962;SDS011;36180;57.678;11.910;2024-01-27T02:29:58;23.55;;;3.05;;
49962;SDS011;36180;57.678;11.910;2024-01-27T02:32:25;27.10;;;3.40;;
49962;SDS011;36180;57.678;11.910;2024-01-27T02:34:52;19.58;;;3.10;;
49962;SDS011;36180;57.678;11.910;2024-01-27T02:37:19;21.65;;;3.22;;
49962;SDS011;36180;57.678;11.910;2024-01-27T02:39:46;21.80;;;3.38;;
49962;SDS011;36180;57.678;11.910;2024-01-27T02:42:14;22.80;;;3.38;;
49962;SDS011;36180;57.678;11.910;2024-01-27T02:44:41;29.15;;;3.72;;
49962;SDS011;36180;57.678;11.910;2024-01-27T02:47:08;29.00;;;3.83;;
49962;SDS011;36180;57.678;11.910;2024-01-27T02:49:35;26.95;;;3.53;;
49962;SDS011;36180;57.678;11.910;2024-01-27T02:52:02;30.55;;;4.35;;
49962;SDS011;36180;57.678;11.910;2024-01-27T02:54:29;33.05;;;4.05;;
49962;SDS011;36180;57.678;11.910;2024-01-27T02:56:56;31.88;;;4.45;;
49962;SDS011;36180;57.678;11.910;2024-01-27T02:59:24;31.02;;;3.67;;
49962;SDS011;36180;57.678;11.910;2024-01-27T03:01:51;36.00;;;3.65;;
49962;SDS011;36180;57.678;11.910;2024-01-27T03:04:18;33.83;;;3.78;;
49962;SDS011;36180;57.678;11.910;2024-01-27T03:06:45;21.05;;;3.17;;
49962;SDS011;36180;57.678;11.910;2024-01-27T03:09:12;29.88;;;4.35;;
49962;SDS011;36180;57.678;11.910;2024-01-27T03:11:39;30.58;;;5.05;;
49962;SDS011;36180;57.678;11.910;2024-01-27T03:14:06;34.30;;;4.55;;
49962;SDS011;36180;57.678;11.910;2024-01-27T03:16:35;40.13;;;5.03;;
49962;SDS011;36180;57.678;11.910;2024-01-27T03:19:02;31.27;;;4.88;;
49962;SDS011;36180;57.678;11.910;2024-01-27T03:21:29;31.63;;;4.00;;
49962;SDS011;36180;57.678;11.910;2024-01-27T03:23:56;35.60;;;4.53;;
49962;SDS011;36180;57.678;11.910;2024-01-27T03:26:23;34.55;;;3.85;;
49962;SDS011;36180;57.678;11.910;2024-01-27T03:28:51;36.67;;;4.93;;
49962;SDS011;36180;57.678;11.910;2024-01-27T03:31:18;31.45;;;4.22;;
49962;SDS011;36180;57.678;11.910;2024-01-27T03:33:46;38.35;;;4.43;;
49962;SDS011;36180;57.678;11.910;2024-01-27T03:36:13;31.88;;;3.95;;
49962;SDS011;36180;57.678;11.910;2024-01-27T03:38:40;34.25;;;4.88;;
49962;SDS011;36180;57.678;11.910;2024-01-27T03:41:07;34.95;;;5.28;;
49962;SDS011;36180;57.678;11.910;2024-01-27T03:43:34;42.05;;;5.70;;
49962;SDS011;36180;57.678;11.910;2024-01-27T03:46:01;43.92;;;5.50;;
49962;SDS011;36180;57.678;11.910;2024-01-27T03:48:29;27.13;;;4.47;;
49962;SDS011;36180;57.678;11.910;2024-01-27T03:50:57;32.70;;;4.50;;
49962;SDS011;36180;57.678;11.910;2024-01-27T03:53:24;40.28;;;4.25;;
49962;SDS011;36180;57.678;11.910;2024-01-27T03:55:52;38.67;;;4.55;;
49962;SDS011;36180;57.678;11.910;2024-01-27T03:58:19;32.35;;;4.65;;
49962;SDS011;36180;57.678;11.910;2024-01-27T04:00:46;39.35;;;5.68;;
49962;SDS011;36180;57.678;11.910;2024-01-27T04:03:13;41.03;;;5.22;;
49962;SDS011;36180;57.678;11.910;2024-01-27T04:05:40;33.20;;;4.63;;
49962;SDS011;36180;57.678;11.910;2024-01-27T04:08:08;39.72;;;6.28;;
49962;SDS011;36180;57.678;11.910;2024-01-27T04:10:36;36.15;;;4.43;;
49962;SDS011;36180;57.678;11.910;2024-01-27T04:13:03;42.72;;;4.82;;
49962;SDS011;36180;57.678;11.910;2024-01-27T04:15:32;47.33;;;5.88;;
49962;SDS011;36180;57.678;11.910;2024-01-27T04:18:02;45.97;;;5.22;;
49962;SDS011;36180;57.678;11.910;2024-01-27T04:20:29;39.47;;;6.35;;
49962;SDS011;36180;57.678;11.910;2024-01-27T04:22:57;30.40;;;5.03;;
49962;SDS011;36180;57.678;11.910;2024-01-27T04:25:25;35.20;;;4.85;;
49962;SDS011;36180;57.678;11.910;2024-01-27T04:27:52;39.63;;;5.30;;
49962;SDS011;36180;57.678;11.910;2024-01-27T04:30:19;42.33;;;5.47;;
49962;SDS011;36180;57.678;11.910;2024-01-27T04:32:46;41.03;;;5.18;;
49962;SDS011;36180;57.678;11.910;2024-01-27T04:35:14;52.85;;;6.18;;
49962;SDS011;36180;57.678;11.910;2024-01-27T04:37:41;37.47;;;4.90;;
49962;SDS011;36180;57.678;11.910;2024-01-27T04:40:09;42.20;;;6.05;;
49962;SDS011;36180;57.678;11.910;2024-01-27T04:42:38;38.30;;;5.28;;
49962;SDS011;36180;57.678;11.910;2024-01-27T04:45:05;43.47;;;5.03;;
49962;SDS011;36180;57.678;11.910;2024-01-27T04:47:33;50.75;;;4.90;;
49962;SDS011;36180;57.678;11.910;2024-01-27T04:50:00;47.88;;;5.07;;
49962;SDS011;36180;57.678;11.910;2024-01-27T04:52:27;42.95;;;5.63;;
49962;SDS011;36180;57.678;11.910;2024-01-27T04:54:54;41.00;;;5.53;;
49962;SDS011;36180;57.678;11.910;2024-01-27T04:57:21;40.22;;;6.18;;
49962;SDS011;36180;57.678;11.910;2024-01-27T04:59:49;41.92;;;5.18;;
49962;SDS011;36180;57.678;11.910;2024-01-27T05:02:17;42.05;;;5.90;;
49962;SDS011;36180;57.678;11.910;2024-01-27T05:04:44;39.70;;;4.47;;
49962;SDS011;36180;57.678;11.910;2024-01-27T05:07:11;43.78;;;5.10;;
49962;SDS011;36180;57.678;11.910;2024-01-27T05:09:38;48.75;;;4.88;;
49962;SDS011;36180;57.678;11.910;2024-01-27T05:12:05;40.78;;;5.57;;
49962;SDS011;36180;57.678;11.910;2024-01-27T05:14:33;42.25;;;5.75;;
49962;SDS011;36180;57.678;11.910;2024-01-27T05:17:01;45.05;;;5.50;;
49962;SDS011;36180;57.678;11.910;2024-01-27T05:19:28;43.22;;;5.05;;
49962;SDS011;36180;57.678;11.910;2024-01-27T05:21:55;46.15;;;6.00;;
49962;SDS011;36180;57.678;11.910;2024-01-27T05:24:22;44.08;;;5.35;;
49962;SDS011;36180;57.678;11.910;2024-01-27T05:26:49;45.50;;;6.47;;
49962;SDS011;36180;57.678;11.910;2024-01-27T05:29:17;44.30;;;4.95;;
49962;SDS011;36180;57.678;11.910;2024-01-27T05:31:44;42.33;;;6.40;;
49962;SDS011;36180;57.678;11.910;2024-01-27T05:34:12;45.22;;;5.80;;
49962;SDS011;36180;57.678;11.910;2024-01-27T05:36:40;40.15;;;5.68;;
49962;SDS011;36180;57.678;11.910;2024-01-27T05:39:07;38.88;;;5.07;;
49962;SDS011;36180;57.678;11.910;2024-01-27T05:41:34;39.50;;;5.15;;
49962;SDS011;36180;57.678;11.910;2024-01-27T05:44:02;48.50;;;5.65;;
49962;SDS011;36180;57.678;11.910;2024-01-27T05:46:29;43.65;;;4.50;;
49962;SDS011;36180;57.678;11.910;2024-01-27T05:48:56;38.30;;;5.70;;
49962;SDS011;36180;57.678;11.910;2024-01-27T05:51:29;33.08;;;4.95;;
49962;SDS011;36180;57.678;11.910;2024-01-27T05:53:56;49.45;;;5.60;;
49962;SDS011;36180;57.678;11.910;2024-01-27T05:56:23;43.15;;;4.93;;
49962;SDS011;36180;57.678;11.910;2024-01-27T05:58:50;40.58;;;5.68;;
49962;SDS011;36180;57.678;11.910;2024-01-27T06:01:18;56.00;;;6.68;;
49962;SDS011;36180;57.678;11.910;2024-01-27T06:03:45;47.15;;;5.85;;
49962;SDS011;36180;57.678;11.910;2024-01-27T06:06:12;53.80;;;6.25;;
49962;SDS011;36180;57.678;11.910;2024-01-27T06:08:41;52.85;;;6.25;;
49962;SDS011;36180;57.678;11.910;2024-01-27T06:11:08;52.63;;;5.50;;
49962;SDS011;36180;57.678;11.910;2024-01-27T06:13:35;50.95;;;5.47;;
49962;SDS011;36180;57.678;11.910;2024-01-27T06:16:06;50.25;;;7.43;;
49962;SDS011;36180;57.678;11.910;2024-01-27T06:18:34;55.25;;;6.68;;
49962;SDS011;36180;57.678;11.910;2024-01-27T06:21:02;53.60;;;7.05;;
49962;SDS011;36180;57.678;11.910;2024-01-27T06:23:29;54.15;;;5.55;;
49962;SDS011;36180;57.678;11.910;2024-01-27T06:25:57;60.67;;;6.57;;
49962;SDS011;36180;57.678;11.910;2024-01-27T06:28:24;65.82;;;7.57;;
49962;SDS011;36180;57.678;11.910;2024-01-27T06:30:52;62.45;;;7.32;;
49962;SDS011;36180;57.678;11.910;2024-01-27T06:33:19;57.33;;;7.15;;
49962;SDS011;36180;57.678;11.910;2024-01-27T06:35:47;65.60;;;7.35;;
49962;SDS011;36180;57.678;11.910;2024-01-27T06:38:14;59.53;;;7.03;;
49962;SDS011;36180;57.678;11.910;2024-01-27T06:40:40;68.05;;;6.82;;
49962;SDS011;36180;57.678;11.910;2024-01-27T06:43:12;57.83;;;6.90;;
49962;SDS011;36180;57.678;11.910;2024-01-27T06:45:39;57.40;;;6.80;;
49962;SDS011;36180;57.678;11.910;2024-01-27T06:48:07;60.63;;;6.93;;
49962;SDS011;36180;57.678;11.910;2024-01-27T06:50:34;56.60;;;6.80;;
49962;SDS011;36180;57.678;11.910;2024-01-27T06:53:01;49.95;;;6.72;;
49962;SDS011;36180;57.678;11.910;2024-01-27T06:55:28;54.75;;;6.63;;
49962;SDS011;36180;57.678;11.910;2024-01-27T06:57:55;63.88;;;7.15;;
49962;SDS011;36180;57.678;11.910;2024-01-27T07:00:23;76.43;;;7.30;;
49962;SDS011;36180;57.678;11.910;2024-01-27T07:02:50;50.10;;;7.28;;
49962;SDS011;36180;57.678;11.910;2024-01-27T07:05:17;58.85;;;6.82;;
49962;SDS011;36180;57.678;11.910;2024-01-27T07:07:44;56.47;;;6.75;;
49962;SDS011;36180;57.678;11.910;2024-01-27T07:10:11;64.55;;;6.90;;
49962;SDS011;36180;57.678;11.910;2024-01-27T07:12:38;70.55;;;7.28;;
49962;SDS011;36180;57.678;11.910;2024-01-27T07:15:06;64.32;;;7.57;;
49962;SDS011;36180;57.678;11.910;2024-01-27T07:17:34;57.45;;;6.90;;
49962;SDS011;36180;57.678;11.910;2024-01-27T07:20:02;64.65;;;7.15;;
49962;SDS011;36180;57.678;11.910;2024-01-27T07:22:30;81.22;;;7.20;;
49962;SDS011;36180;57.678;11.910;2024-01-27T07:24:57;62.40;;;8.50;;
49962;SDS011;36180;57.678;11.910;2024-01-27T07:27:24;60.58;;;7.35;;
49962;SDS011;36180;57.678;11.910;2024-01-27T07:29:51;61.17;;;6.80;;
49962;SDS011;36180;57.678;11.910;2024-01-27T07:32:18;57.25;;;6.97;;
49962;SDS011;36180;57.678;11.910;2024-01-27T07:34:48;58.83;;;7.28;;
49962;SDS011;36180;57.678;11.910;2024-01-27T07:37:15;66.00;;;7.15;;
49962;SDS011;36180;57.678;11.910;2024-01-27T07:39:42;71.22;;;7.43;;
49962;SDS011;36180;57.678;11.910;2024-01-27T07:42:09;61.22;;;6.32;;
49962;SDS011;36180;57.678;11.910;2024-01-27T07:44:36;53.13;;;7.93;;
49962;SDS011;36180;57.678;11.910;2024-01-27T07:47:03;75.03;;;7.55;;
49962;SDS011;36180;57.678;11.910;2024-01-27T07:49:30;73.82;;;7.85;;
49962;SDS011;36180;57.678;11.910;2024-01-27T07:51:59;63.63;;;8.10;;
49962;SDS011;36180;57.678;11.910;2024-01-27T07:54:26;68.32;;;8.98;;
49962;SDS011;36180;57.678;11.910;2024-01-27T07:56:53;71.63;;;8.85;;
49962;SDS011;36180;57.678;11.910;2024-01-27T07:59:20;64.72;;;8.38;;
49962;SDS011;36180;57.678;11.910;2024-01-27T08:01:47;81.47;;;8.55;;
49962;SDS011;36180;57.678;11.910;2024-01-27T08:04:14;64.00;;;8.15;;
49962;SDS011;36180;57.678;11.910;2024-01-27T08:06:48;61.58;;;7.80;;
49962;SDS011;36180;57.678;11.910;2024-01-27T08:09:17;65.03;;;7.38;;
49962;SDS011;36180;57.678;11.910;2024-01-27T08:11:44;65.57;;;8.15;;
49962;SDS011;36180;57.678;11.910;2024-01-27T08:14:16;73.43;;;8.63;;
49962;SDS011;36180;57.678;11.910;2024-01-27T08:16:43;61.35;;;7.45;;
49962;SDS011;36180;57.678;11.910;2024-01-27T08:19:10;56.45;;;6.88;;
49962;SDS011;36180;57.678;11.910;2024-01-27T08:21:37;54.15;;;6.80;;
49962;SDS011;36180;57.678;11.910;2024-01-27T08:24:04;47.03;;;6.53;;
49962;SDS011;36180;57.678;11.910;2024-01-27T08:26:33;59.55;;;6.80;;
49962;SDS011;36180;57.678;11.910;2024-01-27T08:29:00;65.05;;;7.68;;
49962;SDS011;36180;57.678;11.910;2024-01-27T08:31:27;64.80;;;8.05;;
49962;SDS011;36180;57.678;11.910;2024-01-27T08:33:54;66.70;;;7.95;;
49962;SDS011;36180;57.678;11.910;2024-01-27T08:36:21;56.17;;;7.18;;
49962;SDS011;36180;57.678;11.910;2024-01-27T08:38:48;55.25;;;7.03;;
49962;SDS011;36180;57.678;11.910;2024-01-27T08:41:15;61.35;;;9.15;;
49962;SDS011;36180;57.678;11.910;2024-01-27T08:43:44;58.90;;;7.32;;
49962;SDS011;36180;57.678;11.910;2024-01-27T08:46:11;57.53;;;7.07;;
49962;SDS011;36180;57.678;11.910;2024-01-27T08:48:40;67.65;;;9.10;;
49962;SDS011;36180;57.678;11.910;2024-01-27T08:51:08;60.83;;;7.18;;
49962;SDS011;36180;57.678;11.910;2024-01-27T08:53:35;46.25;;;7.32;;
49962;SDS011;36180;57.678;11.910;2024-01-27T08:56:02;58.15;;;6.72;;
49962;SDS011;36180;57.678;11.910;2024-01-27T08:58:30;55.67;;;6.88;;
49962;SDS011;36180;57.678;11.910;2024-01-27T09:00:58;56.53;;;6.22;;
49962;SDS011;36180;57.678;11.910;2024-01-27T09:03:30;46.78;;;6.28;;
49962;SDS011;36180;57.678;11.910;2024-01-27T09:05:57;65.10;;;6.68;;
49962;SDS011;36180;57.678;11.910;2024-01-27T09:08:24;46.25;;;6.75;;
49962;SDS011;36180;57.678;11.910;2024-01-27T09:10:51;55.97;;;9.07;;
49962;SDS011;36180;57.678;11.910;2024-01-27T09:13:18;64.47;;;7.53;;
49962;SDS011;36180;57.678;11.910;2024-01-27T09:15:45;53.33;;;6.60;;
49962;SDS011;36180;57.678;11.910;2024-01-27T09:18:15;36.22;;;5.15;;
49962;SDS011;36180;57.678;11.910;2024-01-27T09:20:42;42.70;;;5.35;;
49962;SDS011;36180;57.678;11.910;2024-01-27T09:23:09;42.10;;;5.65;;
49962;SDS011;36180;57.678;11.910;2024-01-27T09:25:37;64.85;;;7.45;;
49962;SDS011;36180;57.678;11.910;2024-01-27T09:28:04;49.03;;;6.40;;
49962;SDS011;36180;57.678;11.910;2024-01-27T09:30:31;50.00;;;6.10;;
49962;SDS011;36180;57.678;11.910;2024-01-27T09:32:58;48.97;;;6.47;;
49962;SDS011;36180;57.678;11.910;2024-01-27T09:35:27;49.38;;;7.40;;
49962;SDS011;36180;57.678;11.910;2024-01-27T09:37:54;48.28;;;6.90;;
49962;SDS011;36180;57.678;11.910;2024-01-27T09:40:21;60.53;;;6.40;;
49962;SDS011;36180;57.678;11.910;2024-01-27T09:42:49;62.97;;;8.82;;
49962;SDS011;36180;57.678;11.910;2024-01-27T09:45:18;48.80;;;7.20;;
49962;SDS011;36180;57.678;11.910;2024-01-27T09:47:46;49.45;;;7.32;;
49962;SDS011;36180;57.678;11.910;2024-01-27T09:50:14;54.58;;;6.57;;
49962;SDS011;36180;57.678;11.910;2024-01-27T09:52:42;62.40;;;8.05;;
49962;SDS011;36180;57.678;11.910;2024-01-27T09:55:09;50.70;;;7.35;;
49962;SDS011;36180;57.678;11.910;2024-01-27T09:57:38;56.20;;;7.53;;
49962;SDS011;36180;57.678;11.910;2024-01-27T10:00:06;60.30;;;7.60;;
49962;SDS011;36180;57.678;11.910;2024-01-27T10:02:37;57.97;;;7.47;;
49962;SDS011;36180;57.678;11.910;2024-01-27T10:05:06;55.40;;;6.47;;
49962;SDS011;36180;57.678;11.910;2024-01-27T10:07:34;48.60;;;6.47;;
49962;SDS011;36180;57.678;11.910;2024-01-27T10:10:03;46.78;;;6.85;;
49962;SDS011;36180;57.678;11.910;2024-01-27T10:12:31;64.97;;;7.00;;
49962;SDS011;36180;57.678;11.910;2024-01-27T10:14:58;55.50;;;7.15;;
49962;SDS011;36180;57.678;11.910;2024-01-27T10:17:25;59.05;;;7.15;;
49962;SDS011;36180;57.678;11.910;2024-01-27T10:22:28;61.45;;;7.47;;
49962;SDS011;36180;57.678;11.910;2024-01-27T10:24:55;59.05;;;6.70;;
49962;SDS011;36180;57.678;11.910;2024-01-27T10:27:23;65.78;;;7.03;;
49962;SDS011;36180;57.678;11.910;2024-01-27T10:29:53;53.42;;;7.30;;
49962;SDS011;36180;57.678;11.910;2024-01-27T10:32:21;57.88;;;7.43;;
49962;SDS011;36180;57.678;11.910;2024-01-27T10:34:49;52.95;;;6.32;;
49962;SDS011;36180;57.678;11.910;2024-01-27T10:37:23;58.03;;;7.85;;
49962;SDS011;36180;57.678;11.910;2024-01-27T10:39:58;47.38;;;5.97;;
49962;SDS011;36180;57.678;11.910;2024-01-27T10:42:28;55.65;;;7.05;;
49962;SDS011;36180;57.678;11.910;2024-01-27T10:44:56;50.45;;;7.18;;
49962;SDS011;36180;57.678;11.910;2024-01-27T10:47:25;59.90;;;7.70;;
49962;SDS011;36180;57.678;11.910;2024-01-27T10:49:54;55.65;;;7.65;;
49962;SDS011;36180;57.678;11.910;2024-01-27T10:52:23;61.42;;;8.32;;
49962;SDS011;36180;57.678;11.910;2024-01-27T10:54:54;41.58;;;6.45;;
49962;SDS011;36180;57.678;11.910;2024-01-27T10:57:25;60.38;;;7.45;;
49962;SDS011;36180;57.678;11.910;2024-01-27T10:59:54;51.78;;;7.20;;
49962;SDS011;36180;57.678;11.910;2024-01-27T11:02:22;66.45;;;6.85;;
49962;SDS011;36180;57.678;11.910;2024-01-27T11:04:50;56.03;;;7.38;;
49962;SDS011;36180;57.678;11.910;2024-01-27T11:07:18;67.20;;;6.93;;
49962;SDS011;36180;57.678;11.910;2024-01-27T11:09:48;71.00;;;7.53;;
49962;SDS011;36180;57.678;11.910;2024-01-27T11:12:17;63.17;;;6.65;;
49962;SDS011;36180;57.678;11.910;2024-01-27T11:14:47;58.22;;;8.52;;
49962;SDS011;36180;57.678;11.910;2024-01-27T11:17:14;59.92;;;8.73;;
49962;SDS011;36180;57.678;11.910;2024-01-27T11:19:41;62.95;;;8.70;;
49962;SDS011;36180;57.678;11.910;2024-01-27T11:22:17;63.03;;;8.43;;
49962;SDS011;36180;57.678;11.910;2024-01-27T11:24:50;50.22;;;7.07;;
49962;SDS011;36180;57.678;11.910;2024-01-27T11:27:17;66.55;;;9.00;;
49962;SDS011;36180;57.678;11.910;2024-01-27T11:29:47;63.88;;;8.15;;
49962;SDS011;36180;57.678;11.910;2024-01-27T11:32:15;54.53;;;7.40;;
49962;SDS011;36180;57.678;11.910;2024-01-27T11:34:42;67.75;;;8.90;;
49962;SDS011;36180;57.678;11.910;2024-01-27T11:37:11;69.32;;;8.05;;
49962;SDS011;36180;57.678;11.910;2024-01-27T11:39:38;63.55;;;9.18;;
49962;SDS011;36180;57.678;11.910;2024-01-27T11:42:06;71.55;;;7.75;;
49962;SDS011;36180;57.678;11.910;2024-01-27T11:44:37;65.63;;;7.15;;
49962;SDS011;36180;57.678;11.910;2024-01-27T11:47:13;55.67;;;7.45;;
49962;SDS011;36180;57.678;11.910;2024-01-27T11:49:41;59.42;;;6.68;;
49962;SDS011;36180;57.678;11.910;2024-01-27T11:52:08;60.10;;;7.55;;
49962;SDS011;36180;57.678;11.910;2024-01-27T11:54:35;73.20;;;7.90;;
49962;SDS011;36180;57.678;11.910;2024-01-27T11:57:03;56.83;;;7.97;;
49962;SDS011;36180;57.678;11.910;2024-01-27T11:59:31;71.30;;;8.07;;
49962;SDS011;36180;57.678;11.910;2024-01-27T12:02:00;56.58;;;8.15;;
49962;SDS011;36180;57.678;11.910;2024-01-27T12:04:28;57.75;;;8.38;;
49962;SDS011;36180;57.678;11.910;2024-01-27T12:06:56;49.25;;;7.68;;
49962;SDS011;36180;57.678;11.910;2024-01-27T12:09:23;51.15;;;7.13;;
49962;SDS011;36180;57.678;11.910;2024-01-27T12:11:49;61.55;;;8.02;;
49962;SDS011;36180;57.678;11.910;2024-01-27T12:14:17;67.53;;;8.02;;
49962;SDS011;36180;57.678;11.910;2024-01-27T12:16:44;59.10;;;8.38;;
49962;SDS011;36180;57.678;11.910;2024-01-27T12:19:13;49.83;;;6.53;;
49962;SDS011;36180;57.678;11.910;2024-01-27T12:21:48;56.55;;;7.65;;
49962;SDS011;36180;57.678;11.910;2024-01-27T12:24:15;51.40;;;8.13;;
49962;SDS011;36180;57.678;11.910;2024-01-27T12:26:43;53.55;;;8.68;;
49962;SDS011;36180;57.678;11.910;2024-01-27T12:29:11;47.72;;;7.60;;
49962;SDS011;36180;57.678;11.910;2024-01-27T12:31:37;56.60;;;7.55;;
49962;SDS011;36180;57.678;11.910;2024-01-27T12:34:04;63.35;;;8.45;;
49962;SDS011;36180;57.678;11.910;2024-01-27T12:36:31;53.35;;;7.45;;
49962;SDS011;36180;57.678;11.910;2024-01-27T12:39:00;51.95;;;7.45;;
49962;SDS011;36180;57.678;11.910;2024-01-27T12:41:29;52.63;;;7.05;;
49962;SDS011;36180;57.678;11.910;2024-01-27T12:43:58;61.40;;;8.55;;
49962;SDS011;36180;57.678;11.910;2024-01-27T12:46:25;60.40;;;6.97;;
49962;SDS011;36180;57.678;11.910;2024-01-27T12:48:52;47.45;;;6.95;;
49962;SDS011;36180;57.678;11.910;2024-01-27T12:51:19;61.10;;;7.60;;
49962;SDS011;36180;57.678;11.910;2024-01-27T12:53:46;48.95;;;6.47;;
49962;SDS011;36180;57.678;11.910;2024-01-27T12:56:15;58.08;;;7.90;;
49962;SDS011;36180;57.678;11.910;2024-01-27T12:58:42;47.30;;;6.38;;
49962;SDS011;36180;57.678;11.910;2024-01-27T13:01:09;54.55;;;7.60;;
49962;SDS011;36180;57.678;11.910;2024-01-27T13:03:36;49.50;;;7.20;;
49962;SDS011;36180;57.678;11.910;2024-01-27T13:06:04;55.28;;;7.50;;
49962;SDS011;36180;57.678;11.910;2024-01-27T13:08:31;48.13;;;7.47;;
49962;SDS011;36180;57.678;11.910;2024-01-27T13:10:58;64.07;;;8.30;;
49962;SDS011;36180;57.678;11.910;2024-01-27T13:13:27;60.88;;;8.05;;
49962;SDS011;36180;57.678;11.910;2024-01-27T13:15:54;62.75;;;8.30;;
49962;SDS011;36180;57.678;11.910;2024-01-27T13:18:21;57.83;;;8.10;;
49962;SDS011;36180;57.678;11.910;2024-01-27T13:20:48;57.90;;;7.35;;
49962;SDS011;36180;57.678;11.910;2024-01-27T13:23:15;54.35;;;7.20;;
49962;SDS011;36180;57.678;11.910;2024-01-27T13:25:42;64.63;;;8.63;;
49962;SDS011;36180;57.678;11.910;2024-01-27T13:28:09;48.80;;;8.45;;
49962;SDS011;36180;57.678;11.910;2024-01-27T13:30:38;55.45;;;7.75;;
49962;SDS011;36180;57.678;11.910;2024-01-27T13:33:05;49.97;;;8.10;;
49962;SDS011;36180;57.678;11.910;2024-01-27T13:35:32;61.90;;;8.15;;
49962;SDS011;36180;57.678;11.910;2024-01-27T13:37:59;48.90;;;6.85;;
49962;SDS011;36180;57.678;11.910;2024-01-27T13:40:26;43.65;;;6.32;;
49962;SDS011;36180;57.678;11.910;2024-01-27T13:42:53;51.22;;;6.82;;
49962;SDS011;36180;57.678;11.910;2024-01-27T13:45:20;57.85;;;7.35;;
49962;SDS011;36180;57.678;11.910;2024-01-27T13:47:49;60.58;;;8.68;;
49962;SDS011;36180;57.678;11.910;2024-01-27T13:50:16;55.05;;;7.07;;
49962;SDS011;36180;57.678;11.910;2024-01-27T13:52:43;50.55;;;7.07;;
49962;SDS011;36180;57.678;11.910;2024-01-27T13:55:11;63.20;;;7.55;;
49962;SDS011;36180;57.678;11.910;2024-01-27T13:57:38;56.75;;;6.82;;
49962;SDS011;36180;57.678;11.910;2024-01-27T14:00:06;61.85;;;7.20;;
49962;SDS011;36180;57.678;11.910;2024-01-27T14:02:35;59.13;;;7.10;;
49962;SDS011;36180;57.678;11.910;2024-01-27T14:05:03;54.35;;;7.28;;
49962;SDS011;36180;57.678;11.910;2024-01-27T14:07:31;57.58;;;7.28;;
49962;SDS011;36180;57.678;11.910;2024-01-27T14:09:59;66.25;;;8.23;;
49962;SDS011;36180;57.678;11.910;2024-01-27T14:12:26;59.88;;;7.30;;
49962;SDS011;36180;57.678;11.910;2024-01-27T14:14:53;59.08;;;7.38;;
49962;SDS011;36180;57.678;11.910;2024-01-27T14:17:27;57.20;;;7.82;;
49962;SDS011;36180;57.678;11.910;2024-01-27T14:19:55;59.20;;;7.72;;
49962;SDS011;36180;57.678;11.910;2024-01-27T14:22:23;59.53;;;7.65;;
49962;SDS011;36180;57.678;11.910;2024-01-27T14:24:50;62.15;;;8.18;;